sensor_id;sensor_type;location;lat;lon;timestamp;P1;durP1;ratioP1;P2;durP2;ratioP2
32874;SDS011;40468;42.128;24.750;2022-11-09T00:00:12;75.38;;;34.53;;
32874;SDS011;40468;42.128;24.750;2022-11-09T00:01:45;75.72;;;33.83;;
32874;SDS011;40468;42.128;24.750;2022-11-09T00:03:17;75.20;;;33.42;;
32874;SDS011;40468;42.128;24.750;2022-11-09T00:04:48;76.60;;;32.53;;
32874;SDS011;40468;42.128;24.750;2022-11-09T00:06:20;73.20;;;32.75;;
32874;SDS011;40468;42.128;24.750;2022-11-09T00:07:52;72.85;;;34.00;;
32874;SDS011;40468;42.128;24.750;2022-11-09T00:09:23;78.88;;;34.85;;
32874;SDS011;40468;42.128;24.750;2022-11-09T00:11:00;75.32;;;34.45;;
32874;SDS011;40468;42.128;24.750;2022-11-09T00:12:33;76.25;;;34.70;;
32874;SDS011;40468;42.128;24.750;2022-11-09T00:14:12;80.22;;;35.95;;
32874;SDS011;40468;42.128;24.750;2022-11-09T00:15:44;104.00;;;47.25;;
32874;SDS011;40468;42.128;24.750;2022-11-09T00:17:16;88.53;;;37.25;;
32874;SDS011;40468;42.128;24.750;2022-11-09T00:18:48;78.05;;;37.22;;
32874;SDS011;40468;42.128;24.750;2022-11-09T00:20:22;82.47;;;37.25;;
32874;SDS011;40468;42.128;24.750;2022-11-09T00:21:54;81.97;;;38.47;;
32874;SDS011;40468;42.128;24.750;2022-11-09T00:23:25;78.75;;;38.92;;
32874;SDS011;40468;42.128;24.750;2022-11-09T00:24:57;90.78;;;39.40;;
32874;SDS011;40468;42.128;24.750;2022-11-09T00:26:29;92.53;;;42.53;;
32874;SDS011;40468;42.128;24.750;2022-11-09T00:28:01;88.88;;;40.42;;
32874;SDS011;40468;42.128;24.750;2022-11-09T00:29:34;78.57;;;37.70;;
32874;SDS011;40468;42.128;24.750;2022-11-09T00:31:07;86.78;;;40.00;;
32874;SDS011;40468;42.128;24.750;2022-11-09T00:32:42;95.53;;;39.28;;
32874;SDS011;40468;42.128;24.750;2022-11-09T00:34:14;81.60;;;38.42;;
32874;SDS011;40468;42.128;24.750;2022-11-09T00:35:46;75.70;;;37.90;;
32874;SDS011;40468;42.128;24.750;2022-11-09T00:37:18;83.63;;;38.50;;
32874;SDS011;40468;42.128;24.750;2022-11-09T00:38:51;94.72;;;39.88;;
32874;SDS011;40468;42.128;24.750;2022-11-09T00:40:24;80.50;;;36.78;;
32874;SDS011;40468;42.128;24.750;2022-11-09T00:41:54;79.53;;;38.00;;
32874;SDS011;40468;42.128;24.750;2022-11-09T00:43:26;86.13;;;38.45;;
32874;SDS011;40468;42.128;24.750;2022-11-09T00:44:59;76.07;;;36.45;;
32874;SDS011;40468;42.128;24.750;2022-11-09T00:48:03;75.40;;;36.55;;
32874;SDS011;40468;42.128;24.750;2022-11-09T00:49:39;81.57;;;36.63;;
32874;SDS011;40468;42.128;24.750;2022-11-09T00:51:11;84.63;;;38.63;;
32874;SDS011;40468;42.128;24.750;2022-11-09T00:52:47;83.00;;;37.78;;
32874;SDS011;40468;42.128;24.750;2022-11-09T00:54:19;81.20;;;37.97;;
32874;SDS011;40468;42.128;24.750;2022-11-09T00:55:52;84.18;;;37.33;;
32874;SDS011;40468;42.128;24.750;2022-11-09T00:58:57;82.15;;;34.97;;
32874;SDS011;40468;42.128;24.750;2022-11-09T01:00:30;76.65;;;36.17;;
32874;SDS011;40468;42.128;24.750;2022-11-09T01:02:02;77.43;;;35.17;;
32874;SDS011;40468;42.128;24.750;2022-11-09T01:03:34;81.47;;;35.05;;
32874;SDS011;40468;42.128;24.750;2022-11-09T01:05:06;84.93;;;34.92;;
32874;SDS011;40468;42.128;24.750;2022-11-09T01:06:39;76.72;;;34.20;;
32874;SDS011;40468;42.128;24.750;2022-11-09T01:08:11;80.38;;;36.15;;
32874;SDS011;40468;42.128;24.750;2022-11-09T01:09:44;84.57;;;35.47;;
32874;SDS011;40468;42.128;24.750;2022-11-09T01:11:17;87.38;;;36.92;;
32874;SDS011;40468;42.128;24.750;2022-11-09T01:12:50;69.60;;;35.38;;
32874;SDS011;40468;42.128;24.750;2022-11-09T01:14:22;74.13;;;34.58;;
32874;SDS011;40468;42.128;24.750;2022-11-09T01:15:56;77.40;;;33.35;;
32874;SDS011;40468;42.128;24.750;2022-11-09T01:18:59;79.80;;;34.17;;
32874;SDS011;40468;42.128;24.750;2022-11-09T01:20:31;77.18;;;35.45;;
32874;SDS011;40468;42.128;24.750;2022-11-09T01:22:03;76.65;;;34.60;;
32874;SDS011;40468;42.128;24.750;2022-11-09T01:23:35;66.88;;;33.92;;
32874;SDS011;40468;42.128;24.750;2022-11-09T01:25:08;77.32;;;35.33;;
32874;SDS011;40468;42.128;24.750;2022-11-09T01:26:40;74.97;;;34.38;;
32874;SDS011;40468;42.128;24.750;2022-11-09T01:28:12;83.72;;;37.70;;
32874;SDS011;40468;42.128;24.750;2022-11-09T01:29:44;75.47;;;33.67;;
32874;SDS011;40468;42.128;24.750;2022-11-09T01:31:18;83.22;;;35.90;;
32874;SDS011;40468;42.128;24.750;2022-11-09T01:32:51;73.53;;;35.90;;
32874;SDS011;40468;42.128;24.750;2022-11-09T01:34:23;67.25;;;34.30;;
32874;SDS011;40468;42.128;24.750;2022-11-09T01:36:00;78.47;;;34.25;;
32874;SDS011;40468;42.128;24.750;2022-11-09T01:37:31;72.75;;;33.67;;
32874;SDS011;40468;42.128;24.750;2022-11-09T01:39:03;78.80;;;35.28;;
32874;SDS011;40468;42.128;24.750;2022-11-09T01:40:36;78.47;;;35.72;;
32874;SDS011;40468;42.128;24.750;2022-11-09T01:42:10;70.75;;;33.92;;
32874;SDS011;40468;42.128;24.750;2022-11-09T01:43:42;80.80;;;35.05;;
32874;SDS011;40468;42.128;24.750;2022-11-09T01:45:20;82.63;;;33.90;;
32874;SDS011;40468;42.128;24.750;2022-11-09T01:46:55;70.07;;;32.60;;
32874;SDS011;40468;42.128;24.750;2022-11-09T01:48:32;77.63;;;34.45;;
32874;SDS011;40468;42.128;24.750;2022-11-09T01:50:07;79.45;;;34.45;;
32874;SDS011;40468;42.128;24.750;2022-11-09T01:51:42;68.15;;;33.28;;
32874;SDS011;40468;42.128;24.750;2022-11-09T01:53:18;73.25;;;33.30;;
32874;SDS011;40468;42.128;24.750;2022-11-09T01:54:54;77.35;;;32.65;;
32874;SDS011;40468;42.128;24.750;2022-11-09T01:56:29;71.13;;;32.83;;
32874;SDS011;40468;42.128;24.750;2022-11-09T01:58:04;78.28;;;36.67;;
32874;SDS011;40468;42.128;24.750;2022-11-09T01:59:39;72.68;;;35.03;;
32874;SDS011;40468;42.128;24.750;2022-11-09T02:01:17;64.28;;;32.08;;
32874;SDS011;40468;42.128;24.750;2022-11-09T02:02:51;68.22;;;32.20;;
32874;SDS011;40468;42.128;24.750;2022-11-09T02:04:27;67.10;;;31.85;;
32874;SDS011;40468;42.128;24.750;2022-11-09T02:06:03;68.53;;;33.08;;
32874;SDS011;40468;42.128;24.750;2022-11-09T02:07:39;73.82;;;34.30;;
32874;SDS011;40468;42.128;24.750;2022-11-09T02:09:13;73.55;;;33.55;;
32874;SDS011;40468;42.128;24.750;2022-11-09T02:10:51;66.63;;;32.78;;
32874;SDS011;40468;42.128;24.750;2022-11-09T02:12:28;74.50;;;32.78;;
32874;SDS011;40468;42.128;24.750;2022-11-09T02:14:03;70.80;;;32.95;;
32874;SDS011;40468;42.128;24.750;2022-11-09T02:17:08;68.68;;;30.25;;
32874;SDS011;40468;42.128;24.750;2022-11-09T02:20:20;68.57;;;30.23;;
32874;SDS011;40468;42.128;24.750;2022-11-09T02:21:53;71.18;;;33.53;;
32874;SDS011;40468;42.128;24.750;2022-11-09T02:23:25;75.30;;;33.60;;
32874;SDS011;40468;42.128;24.750;2022-11-09T02:24:57;70.05;;;33.90;;
32874;SDS011;40468;42.128;24.750;2022-11-09T02:26:29;66.20;;;30.77;;
32874;SDS011;40468;42.128;24.750;2022-11-09T02:28:03;72.68;;;33.13;;
32874;SDS011;40468;42.128;24.750;2022-11-09T02:29:36;75.18;;;34.25;;
32874;SDS011;40468;42.128;24.750;2022-11-09T02:31:11;72.18;;;33.47;;
32874;SDS011;40468;42.128;24.750;2022-11-09T02:32:45;74.53;;;33.20;;
32874;SDS011;40468;42.128;24.750;2022-11-09T02:34:17;66.78;;;32.83;;
32874;SDS011;40468;42.128;24.750;2022-11-09T02:35:52;68.30;;;33.13;;
32874;SDS011;40468;42.128;24.750;2022-11-09T02:37:25;73.97;;;32.42;;
32874;SDS011;40468;42.128;24.750;2022-11-09T02:38:58;77.78;;;33.80;;
32874;SDS011;40468;42.128;24.750;2022-11-09T02:40:30;68.80;;;32.47;;
32874;SDS011;40468;42.128;24.750;2022-11-09T02:42:07;69.63;;;32.30;;
32874;SDS011;40468;42.128;24.750;2022-11-09T02:43:41;75.80;;;33.35;;
32874;SDS011;40468;42.128;24.750;2022-11-09T02:45:13;65.80;;;32.03;;
32874;SDS011;40468;42.128;24.750;2022-11-09T02:46:44;67.22;;;33.65;;
32874;SDS011;40468;42.128;24.750;2022-11-09T02:48:16;66.57;;;33.55;;
32874;SDS011;40468;42.128;24.750;2022-11-09T02:49:48;76.30;;;34.10;;
32874;SDS011;40468;42.128;24.750;2022-11-09T02:51:22;65.03;;;31.95;;
32874;SDS011;40468;42.128;24.750;2022-11-09T02:52:53;70.78;;;33.08;;
32874;SDS011;40468;42.128;24.750;2022-11-09T02:54:25;69.75;;;33.70;;
32874;SDS011;40468;42.128;24.750;2022-11-09T02:55:57;73.85;;;33.17;;
32874;SDS011;40468;42.128;24.750;2022-11-09T02:57:28;68.35;;;31.52;;
32874;SDS011;40468;42.128;24.750;2022-11-09T02:59:00;71.57;;;31.90;;
32874;SDS011;40468;42.128;24.750;2022-11-09T03:00:32;72.32;;;33.30;;
32874;SDS011;40468;42.128;24.750;2022-11-09T03:02:04;60.17;;;30.52;;
32874;SDS011;40468;42.128;24.750;2022-11-09T03:03:36;73.07;;;33.08;;
32874;SDS011;40468;42.128;24.750;2022-11-09T03:05:08;72.03;;;31.85;;
32874;SDS011;40468;42.128;24.750;2022-11-09T03:06:41;74.30;;;31.95;;
32874;SDS011;40468;42.128;24.750;2022-11-09T03:08:13;60.00;;;31.13;;
32874;SDS011;40468;42.128;24.750;2022-11-09T03:09:45;67.63;;;32.00;;
32874;SDS011;40468;42.128;24.750;2022-11-09T03:11:16;65.13;;;32.10;;
32874;SDS011;40468;42.128;24.750;2022-11-09T03:12:48;71.70;;;33.22;;
32874;SDS011;40468;42.128;24.750;2022-11-09T03:14:20;65.43;;;30.27;;
32874;SDS011;40468;42.128;24.750;2022-11-09T03:15:51;66.68;;;31.02;;
32874;SDS011;40468;42.128;24.750;2022-11-09T03:17:23;63.20;;;30.75;;
32874;SDS011;40468;42.128;24.750;2022-11-09T03:18:55;65.65;;;31.80;;
32874;SDS011;40468;42.128;24.750;2022-11-09T03:20:28;67.03;;;31.60;;
32874;SDS011;40468;42.128;24.750;2022-11-09T03:22:01;65.13;;;29.75;;
32874;SDS011;40468;42.128;24.750;2022-11-09T03:23:33;69.13;;;32.28;;
32874;SDS011;40468;42.128;24.750;2022-11-09T03:25:05;59.80;;;31.30;;
32874;SDS011;40468;42.128;24.750;2022-11-09T03:26:37;68.38;;;31.85;;
32874;SDS011;40468;42.128;24.750;2022-11-09T03:28:09;70.00;;;31.70;;
32874;SDS011;40468;42.128;24.750;2022-11-09T03:29:41;80.50;;;31.90;;
32874;SDS011;40468;42.128;24.750;2022-11-09T03:31:13;76.57;;;32.40;;
32874;SDS011;40468;42.128;24.750;2022-11-09T03:32:45;64.05;;;31.80;;
32874;SDS011;40468;42.128;24.750;2022-11-09T03:34:17;66.55;;;32.35;;
32874;SDS011;40468;42.128;24.750;2022-11-09T03:35:48;68.07;;;32.22;;
32874;SDS011;40468;42.128;24.750;2022-11-09T03:37:21;67.80;;;31.05;;
32874;SDS011;40468;42.128;24.750;2022-11-09T03:38:53;67.88;;;32.05;;
32874;SDS011;40468;42.128;24.750;2022-11-09T03:40:25;71.75;;;30.20;;
32874;SDS011;40468;42.128;24.750;2022-11-09T03:41:57;62.70;;;30.67;;
32874;SDS011;40468;42.128;24.750;2022-11-09T03:43:29;69.95;;;32.78;;
32874;SDS011;40468;42.128;24.750;2022-11-09T03:45:01;70.15;;;32.05;;
32874;SDS011;40468;42.128;24.750;2022-11-09T03:46:32;66.75;;;31.85;;
32874;SDS011;40468;42.128;24.750;2022-11-09T03:48:03;69.97;;;31.58;;
32874;SDS011;40468;42.128;24.750;2022-11-09T03:49:36;70.28;;;32.40;;
32874;SDS011;40468;42.128;24.750;2022-11-09T03:51:08;72.88;;;31.88;;
32874;SDS011;40468;42.128;24.750;2022-11-09T03:52:41;69.03;;;31.75;;
32874;SDS011;40468;42.128;24.750;2022-11-09T03:54:14;63.55;;;30.35;;
32874;SDS011;40468;42.128;24.750;2022-11-09T03:55:46;70.43;;;31.33;;
32874;SDS011;40468;42.128;24.750;2022-11-09T03:57:18;64.90;;;31.05;;
32874;SDS011;40468;42.128;24.750;2022-11-09T03:58:50;65.60;;;31.25;;
32874;SDS011;40468;42.128;24.750;2022-11-09T04:00:22;60.80;;;30.80;;
32874;SDS011;40468;42.128;24.750;2022-11-09T04:01:54;69.78;;;32.13;;
32874;SDS011;40468;42.128;24.750;2022-11-09T04:03:24;70.03;;;30.48;;
32874;SDS011;40468;42.128;24.750;2022-11-09T04:04:56;64.57;;;31.08;;
32874;SDS011;40468;42.128;24.750;2022-11-09T04:06:28;58.00;;;30.85;;
32874;SDS011;40468;42.128;24.750;2022-11-09T04:08:01;65.78;;;30.67;;
32874;SDS011;40468;42.128;24.750;2022-11-09T04:11:05;61.78;;;28.83;;
32874;SDS011;40468;42.128;24.750;2022-11-09T04:12:37;61.45;;;29.88;;
32874;SDS011;40468;42.128;24.750;2022-11-09T04:14:09;59.35;;;30.02;;
32874;SDS011;40468;42.128;24.750;2022-11-09T04:15:41;61.53;;;30.77;;
32874;SDS011;40468;42.128;24.750;2022-11-09T04:17:13;63.90;;;30.98;;
32874;SDS011;40468;42.128;24.750;2022-11-09T04:18:45;67.50;;;31.92;;
32874;SDS011;40468;42.128;24.750;2022-11-09T04:20:16;67.25;;;31.33;;
32874;SDS011;40468;42.128;24.750;2022-11-09T04:21:47;74.20;;;31.17;;
32874;SDS011;40468;42.128;24.750;2022-11-09T04:23:21;58.92;;;31.10;;
32874;SDS011;40468;42.128;24.750;2022-11-09T04:24:53;66.22;;;31.80;;
32874;SDS011;40468;42.128;24.750;2022-11-09T04:26:25;69.30;;;32.78;;
32874;SDS011;40468;42.128;24.750;2022-11-09T04:27:56;63.90;;;32.00;;
32874;SDS011;40468;42.128;24.750;2022-11-09T04:29:28;73.57;;;33.35;;
32874;SDS011;40468;42.128;24.750;2022-11-09T04:31:00;66.35;;;31.50;;
32874;SDS011;40468;42.128;24.750;2022-11-09T04:32:32;65.57;;;32.08;;
32874;SDS011;40468;42.128;24.750;2022-11-09T04:34:04;60.28;;;30.58;;
32874;SDS011;40468;42.128;24.750;2022-11-09T04:35:36;68.13;;;31.58;;
32874;SDS011;40468;42.128;24.750;2022-11-09T04:37:08;69.32;;;30.48;;
32874;SDS011;40468;42.128;24.750;2022-11-09T04:38:41;64.47;;;30.25;;
32874;SDS011;40468;42.128;24.750;2022-11-09T04:40:13;65.60;;;32.00;;
32874;SDS011;40468;42.128;24.750;2022-11-09T04:41:46;66.77;;;32.20;;
32874;SDS011;40468;42.128;24.750;2022-11-09T04:43:17;68.55;;;30.52;;
32874;SDS011;40468;42.128;24.750;2022-11-09T04:44:49;80.13;;;31.35;;
32874;SDS011;40468;42.128;24.750;2022-11-09T04:46:21;74.72;;;32.75;;
32874;SDS011;40468;42.128;24.750;2022-11-09T04:47:55;70.25;;;32.28;;
32874;SDS011;40468;42.128;24.750;2022-11-09T04:49:28;69.80;;;31.33;;
32874;SDS011;40468;42.128;24.750;2022-11-09T04:51:00;70.57;;;30.92;;
32874;SDS011;40468;42.128;24.750;2022-11-09T04:52:32;69.80;;;31.27;;
32874;SDS011;40468;42.128;24.750;2022-11-09T04:54:04;79.28;;;31.65;;
32874;SDS011;40468;42.128;24.750;2022-11-09T04:55:36;68.85;;;32.72;;
32874;SDS011;40468;42.128;24.750;2022-11-09T04:57:09;70.55;;;33.70;;
32874;SDS011;40468;42.128;24.750;2022-11-09T04:58:41;72.70;;;33.28;;
32874;SDS011;40468;42.128;24.750;2022-11-09T05:00:12;69.38;;;31.23;;
32874;SDS011;40468;42.128;24.750;2022-11-09T05:01:45;69.20;;;31.27;;
32874;SDS011;40468;42.128;24.750;2022-11-09T05:03:16;65.88;;;30.40;;
32874;SDS011;40468;42.128;24.750;2022-11-09T05:04:48;65.85;;;31.33;;
32874;SDS011;40468;42.128;24.750;2022-11-09T05:06:20;66.07;;;31.65;;
32874;SDS011;40468;42.128;24.750;2022-11-09T05:09:37;75.80;;;32.03;;
32874;SDS011;40468;42.128;24.750;2022-11-09T05:11:09;67.72;;;31.58;;
32874;SDS011;40468;42.128;24.750;2022-11-09T05:12:41;70.90;;;31.35;;
32874;SDS011;40468;42.128;24.750;2022-11-09T05:14:13;73.10;;;32.65;;
32874;SDS011;40468;42.128;24.750;2022-11-09T05:15:45;77.55;;;32.40;;
32874;SDS011;40468;42.128;24.750;2022-11-09T05:17:17;75.57;;;32.70;;
32874;SDS011;40468;42.128;24.750;2022-11-09T05:18:49;65.82;;;30.58;;
32874;SDS011;40468;42.128;24.750;2022-11-09T05:20:21;69.75;;;31.48;;
32874;SDS011;40468;42.128;24.750;2022-11-09T05:21:53;72.10;;;32.90;;
32874;SDS011;40468;42.128;24.750;2022-11-09T05:23:24;83.18;;;33.55;;
32874;SDS011;40468;42.128;24.750;2022-11-09T05:25:15;77.30;;;32.33;;
32874;SDS011;40468;42.128;24.750;2022-11-09T05:26:46;73.95;;;32.42;;
32874;SDS011;40468;42.128;24.750;2022-11-09T05:28:18;70.93;;;31.92;;
32874;SDS011;40468;42.128;24.750;2022-11-09T05:29:50;68.22;;;30.70;;
32874;SDS011;40468;42.128;24.750;2022-11-09T05:31:22;74.80;;;33.67;;
32874;SDS011;40468;42.128;24.750;2022-11-09T05:32:54;75.82;;;31.88;;
32874;SDS011;40468;42.128;24.750;2022-11-09T05:34:25;69.53;;;32.08;;
32874;SDS011;40468;42.128;24.750;2022-11-09T05:35:57;85.95;;;34.33;;
32874;SDS011;40468;42.128;24.750;2022-11-09T05:37:29;80.75;;;32.78;;
32874;SDS011;40468;42.128;24.750;2022-11-09T05:39:01;76.55;;;32.83;;
32874;SDS011;40468;42.128;24.750;2022-11-09T05:40:35;73.35;;;33.58;;
32874;SDS011;40468;42.128;24.750;2022-11-09T05:42:05;87.30;;;35.53;;
32874;SDS011;40468;42.128;24.750;2022-11-09T05:45:11;82.13;;;32.63;;
32874;SDS011;40468;42.128;24.750;2022-11-09T05:46:44;76.10;;;32.88;;
32874;SDS011;40468;42.128;24.750;2022-11-09T05:48:16;74.53;;;32.72;;
32874;SDS011;40468;42.128;24.750;2022-11-09T05:49:49;64.88;;;32.47;;
32874;SDS011;40468;42.128;24.750;2022-11-09T05:51:21;74.60;;;34.10;;
32874;SDS011;40468;42.128;24.750;2022-11-09T05:52:53;75.90;;;34.20;;
32874;SDS011;40468;42.128;24.750;2022-11-09T05:54:24;77.00;;;33.55;;
32874;SDS011;40468;42.128;24.750;2022-11-09T05:56:01;76.75;;;32.25;;
32874;SDS011;40468;42.128;24.750;2022-11-09T05:57:34;70.53;;;31.63;;
32874;SDS011;40468;42.128;24.750;2022-11-09T05:59:07;71.75;;;33.88;;
32874;SDS011;40468;42.128;24.750;2022-11-09T06:00:38;68.05;;;32.53;;
32874;SDS011;40468;42.128;24.750;2022-11-09T06:02:10;74.97;;;32.50;;
32874;SDS011;40468;42.128;24.750;2022-11-09T06:03:42;72.97;;;32.33;;
32874;SDS011;40468;42.128;24.750;2022-11-09T06:05:14;80.03;;;33.53;;
32874;SDS011;40468;42.128;24.750;2022-11-09T06:06:46;77.80;;;33.03;;
32874;SDS011;40468;42.128;24.750;2022-11-09T06:08:18;73.13;;;31.88;;
32874;SDS011;40468;42.128;24.750;2022-11-09T06:09:50;68.03;;;32.90;;
32874;SDS011;40468;42.128;24.750;2022-11-09T06:11:23;68.40;;;33.40;;
32874;SDS011;40468;42.128;24.750;2022-11-09T06:12:55;74.82;;;31.88;;
32874;SDS011;40468;42.128;24.750;2022-11-09T06:14:27;70.55;;;32.40;;
32874;SDS011;40468;42.128;24.750;2022-11-09T06:15:59;72.10;;;34.72;;
32874;SDS011;40468;42.128;24.750;2022-11-09T06:17:31;79.75;;;34.42;;
32874;SDS011;40468;42.128;24.750;2022-11-09T06:19:03;76.93;;;34.88;;
32874;SDS011;40468;42.128;24.750;2022-11-09T06:20:35;80.25;;;35.28;;
32874;SDS011;40468;42.128;24.750;2022-11-09T06:22:06;79.25;;;36.17;;
32874;SDS011;40468;42.128;24.750;2022-11-09T06:23:38;80.45;;;36.45;;
32874;SDS011;40468;42.128;24.750;2022-11-09T06:25:10;91.80;;;35.55;;
32874;SDS011;40468;42.128;24.750;2022-11-09T06:26:43;80.50;;;37.20;;
32874;SDS011;40468;42.128;24.750;2022-11-09T06:29:47;86.40;;;39.53;;
32874;SDS011;40468;42.128;24.750;2022-11-09T06:31:19;95.32;;;40.50;;
32874;SDS011;40468;42.128;24.750;2022-11-09T06:32:51;86.45;;;37.80;;
32874;SDS011;40468;42.128;24.750;2022-11-09T06:34:28;82.82;;;40.75;;
32874;SDS011;40468;42.128;24.750;2022-11-09T06:36:00;87.55;;;40.50;;
32874;SDS011;40468;42.128;24.750;2022-11-09T06:37:33;85.97;;;40.65;;
32874;SDS011;40468;42.128;24.750;2022-11-09T06:39:05;92.32;;;37.33;;
32874;SDS011;40468;42.128;24.750;2022-11-09T06:40:38;83.97;;;37.38;;
32874;SDS011;40468;42.128;24.750;2022-11-09T06:42:11;77.82;;;38.75;;
32874;SDS011;40468;42.128;24.750;2022-11-09T06:43:43;79.63;;;36.70;;
32874;SDS011;40468;42.128;24.750;2022-11-09T06:45:15;73.10;;;34.92;;
32874;SDS011;40468;42.128;24.750;2022-11-09T06:46:47;79.82;;;35.63;;
32874;SDS011;40468;42.128;24.750;2022-11-09T06:48:19;79.72;;;40.50;;
32874;SDS011;40468;42.128;24.750;2022-11-09T06:49:51;190.10;;;92.35;;
32874;SDS011;40468;42.128;24.750;2022-11-09T06:51:23;189.90;;;92.95;;
32874;SDS011;40468;42.128;24.750;2022-11-09T06:52:55;209.80;;;95.90;;
32874;SDS011;40468;42.128;24.750;2022-11-09T06:54:28;124.47;;;59.33;;
32874;SDS011;40468;42.128;24.750;2022-11-09T06:56:00;100.53;;;50.45;;
32874;SDS011;40468;42.128;24.750;2022-11-09T06:57:34;133.82;;;60.90;;
32874;SDS011;40468;42.128;24.750;2022-11-09T06:59:06;140.30;;;73.57;;
32874;SDS011;40468;42.128;24.750;2022-11-09T07:00:38;74.50;;;38.67;;
32874;SDS011;40468;42.128;24.750;2022-11-09T07:02:10;78.68;;;36.78;;
32874;SDS011;40468;42.128;24.750;2022-11-09T07:03:45;197.70;;;98.65;;
32874;SDS011;40468;42.128;24.750;2022-11-09T07:05:17;161.13;;;86.03;;
32874;SDS011;40468;42.128;24.750;2022-11-09T07:06:48;117.97;;;60.60;;
32874;SDS011;40468;42.128;24.750;2022-11-09T07:08:20;79.60;;;37.45;;
32874;SDS011;40468;42.128;24.750;2022-11-09T07:09:52;106.15;;;51.40;;
32874;SDS011;40468;42.128;24.750;2022-11-09T07:11:25;75.30;;;36.70;;
32874;SDS011;40468;42.128;24.750;2022-11-09T07:12:58;79.00;;;33.95;;
32874;SDS011;40468;42.128;24.750;2022-11-09T07:14:32;85.85;;;35.28;;
32874;SDS011;40468;42.128;24.750;2022-11-09T07:16:04;74.50;;;34.00;;
32874;SDS011;40468;42.128;24.750;2022-11-09T07:17:36;71.53;;;33.58;;
32874;SDS011;40468;42.128;24.750;2022-11-09T07:19:09;73.00;;;35.20;;
32874;SDS011;40468;42.128;24.750;2022-11-09T07:20:41;71.68;;;35.05;;
32874;SDS011;40468;42.128;24.750;2022-11-09T07:22:13;79.93;;;35.60;;
32874;SDS011;40468;42.128;24.750;2022-11-09T07:23:45;72.30;;;33.38;;
32874;SDS011;40468;42.128;24.750;2022-11-09T07:25:18;65.20;;;32.33;;
32874;SDS011;40468;42.128;24.750;2022-11-09T07:26:50;82.25;;;33.95;;
32874;SDS011;40468;42.128;24.750;2022-11-09T07:28:23;71.57;;;33.22;;
32874;SDS011;40468;42.128;24.750;2022-11-09T07:29:55;67.22;;;31.98;;
32874;SDS011;40468;42.128;24.750;2022-11-09T07:31:27;72.93;;;34.10;;
32874;SDS011;40468;42.128;24.750;2022-11-09T07:33:00;73.57;;;34.10;;
32874;SDS011;40468;42.128;24.750;2022-11-09T07:34:32;73.57;;;34.70;;
32874;SDS011;40468;42.128;24.750;2022-11-09T07:36:04;71.00;;;34.17;;
32874;SDS011;40468;42.128;24.750;2022-11-09T07:37:37;73.32;;;34.85;;
32874;SDS011;40468;42.128;24.750;2022-11-09T07:39:08;75.63;;;34.05;;
32874;SDS011;40468;42.128;24.750;2022-11-09T07:40:41;64.03;;;34.08;;
32874;SDS011;40468;42.128;24.750;2022-11-09T07:42:13;74.43;;;34.67;;
32874;SDS011;40468;42.128;24.750;2022-11-09T07:43:46;72.25;;;34.05;;
32874;SDS011;40468;42.128;24.750;2022-11-09T07:45:18;77.53;;;35.85;;
32874;SDS011;40468;42.128;24.750;2022-11-09T07:46:50;70.32;;;34.33;;
32874;SDS011;40468;42.128;24.750;2022-11-09T07:48:22;70.07;;;35.30;;
32874;SDS011;40468;42.128;24.750;2022-11-09T07:49:54;71.95;;;35.25;;
32874;SDS011;40468;42.128;24.750;2022-11-09T07:51:26;71.10;;;34.30;;
32874;SDS011;40468;42.128;24.750;2022-11-09T07:52:58;71.93;;;36.22;;
32874;SDS011;40468;42.128;24.750;2022-11-09T07:54:31;70.05;;;34.33;;
32874;SDS011;40468;42.128;24.750;2022-11-09T07:56:03;70.10;;;36.13;;
32874;SDS011;40468;42.128;24.750;2022-11-09T07:57:35;87.28;;;36.80;;
32874;SDS011;40468;42.128;24.750;2022-11-09T07:59:09;77.65;;;35.50;;
32874;SDS011;40468;42.128;24.750;2022-11-09T08:02:13;70.15;;;34.50;;
32874;SDS011;40468;42.128;24.750;2022-11-09T08:03:45;73.70;;;35.83;;
32874;SDS011;40468;42.128;24.750;2022-11-09T08:05:17;70.28;;;36.65;;
32874;SDS011;40468;42.128;24.750;2022-11-09T08:06:50;74.30;;;35.78;;
32874;SDS011;40468;42.128;24.750;2022-11-09T08:08:22;72.95;;;36.33;;
32874;SDS011;40468;42.128;24.750;2022-11-09T08:09:54;69.18;;;36.25;;
32874;SDS011;40468;42.128;24.750;2022-11-09T08:11:26;73.38;;;36.03;;
32874;SDS011;40468;42.128;24.750;2022-11-09T08:12:59;75.80;;;35.10;;
32874;SDS011;40468;42.128;24.750;2022-11-09T08:14:33;71.68;;;33.88;;
32874;SDS011;40468;42.128;24.750;2022-11-09T08:16:04;72.57;;;35.25;;
32874;SDS011;40468;42.128;24.750;2022-11-09T08:17:37;62.05;;;32.45;;
32874;SDS011;40468;42.128;24.750;2022-11-09T08:19:08;77.30;;;36.17;;
32874;SDS011;40468;42.128;24.750;2022-11-09T08:20:40;80.55;;;35.83;;
32874;SDS011;40468;42.128;24.750;2022-11-09T08:22:12;68.53;;;35.33;;
32874;SDS011;40468;42.128;24.750;2022-11-09T08:23:44;67.22;;;36.28;;
32874;SDS011;40468;42.128;24.750;2022-11-09T08:25:16;76.13;;;34.65;;
32874;SDS011;40468;42.128;24.750;2022-11-09T08:26:48;64.13;;;35.05;;
32874;SDS011;40468;42.128;24.750;2022-11-09T08:28:20;73.60;;;36.70;;
32874;SDS011;40468;42.128;24.750;2022-11-09T08:29:54;68.68;;;35.80;;
32874;SDS011;40468;42.128;24.750;2022-11-09T08:31:25;65.97;;;34.35;;
32874;SDS011;40468;42.128;24.750;2022-11-09T08:32:59;64.78;;;34.50;;
32874;SDS011;40468;42.128;24.750;2022-11-09T08:34:32;69.25;;;34.92;;
32874;SDS011;40468;42.128;24.750;2022-11-09T08:36:08;61.13;;;34.53;;
32874;SDS011;40468;42.128;24.750;2022-11-09T08:37:41;66.47;;;34.88;;
32874;SDS011;40468;42.128;24.750;2022-11-09T08:39:13;63.22;;;33.83;;
32874;SDS011;40468;42.128;24.750;2022-11-09T08:40:45;68.82;;;36.20;;
32874;SDS011;40468;42.128;24.750;2022-11-09T08:42:17;71.13;;;35.35;;
32874;SDS011;40468;42.128;24.750;2022-11-09T08:43:49;64.13;;;34.95;;
32874;SDS011;40468;42.128;24.750;2022-11-09T08:45:22;71.72;;;36.58;;
32874;SDS011;40468;42.128;24.750;2022-11-09T08:46:54;69.35;;;35.50;;
32874;SDS011;40468;42.128;24.750;2022-11-09T08:48:26;74.70;;;37.45;;
32874;SDS011;40468;42.128;24.750;2022-11-09T08:49:58;68.20;;;35.35;;
32874;SDS011;40468;42.128;24.750;2022-11-09T08:51:30;62.15;;;33.75;;
32874;SDS011;40468;42.128;24.750;2022-11-09T08:53:02;68.57;;;35.55;;
32874;SDS011;40468;42.128;24.750;2022-11-09T08:54:35;65.07;;;34.33;;
32874;SDS011;40468;42.128;24.750;2022-11-09T08:56:07;56.70;;;33.78;;
32874;SDS011;40468;42.128;24.750;2022-11-09T08:57:40;72.97;;;35.97;;
32874;SDS011;40468;42.128;24.750;2022-11-09T08:59:11;57.92;;;33.20;;
32874;SDS011;40468;42.128;24.750;2022-11-09T09:00:45;67.28;;;34.45;;
32874;SDS011;40468;42.128;24.750;2022-11-09T09:02:17;73.93;;;36.40;;
32874;SDS011;40468;42.128;24.750;2022-11-09T09:03:49;70.47;;;35.45;;
32874;SDS011;40468;42.128;24.750;2022-11-09T09:05:21;60.72;;;33.17;;
32874;SDS011;40468;42.128;24.750;2022-11-09T09:06:53;54.03;;;33.25;;
32874;SDS011;40468;42.128;24.750;2022-11-09T09:08:25;65.32;;;32.83;;